createdAt,value
2023-02-12T00:00:49.068Z,6.65
2023-02-12T00:03:53.358Z,6.67
2023-02-12T00:06:57.448Z,6.76
2023-02-12T00:10:01.570Z,6.69
2023-02-12T00:13:05.816Z,6.65
2023-02-12T00:16:13.610Z,6.69
2023-02-12T00:19:17.975Z,6.68
2023-02-12T00:22:22.073Z,6.74
2023-02-12T00:25:26.295Z,6.74
2023-02-12T00:28:30.469Z,6.76
2023-02-12T00:31:34.804Z,6.73
2023-02-12T00:34:39.077Z,6.72
2023-02-12T00:37:43.070Z,6.77
2023-02-12T00:40:46.941Z,6.76
2023-02-12T00:43:51.616Z,6.73
2023-02-12T00:46:55.420Z,6.77
2023-02-12T00:49:59.747Z,6.77
2023-02-12T00:53:03.810Z,6.76
2023-02-12T00:56:08.288Z,6.75
2023-02-12T00:59:12.371Z,6.79
2023-02-12T01:02:18.053Z,6.76
2023-02-12T01:05:22.213Z,6.76
2023-02-12T01:08:26.250Z,6.77
2023-02-12T01:11:30.303Z,6.73
2023-02-12T01:14:34.622Z,6.77
2023-02-12T01:17:39.284Z,6.81
2023-02-12T01:20:43.231Z,6.81
2023-02-12T01:23:48.187Z,6.80
2023-02-12T01:26:51.937Z,6.77
2023-02-12T01:29:56.586Z,6.85
2023-02-12T01:33:00.825Z,6.84
2023-02-12T01:36:05.210Z,6.89
2023-02-12T01:39:10.887Z,6.93
2023-02-12T01:42:18.670Z,6.89
2023-02-12T01:45:22.474Z,6.93
2023-02-12T01:48:29.055Z,6.96
2023-02-12T01:51:34.741Z,6.95
2023-02-12T01:54:40.178Z,6.89
2023-02-12T01:57:47.559Z,6.89
2023-02-12T02:00:52.682Z,6.92
2023-02-12T02:04:01.310Z,6.97
2023-02-12T02:07:08.147Z,6.94
2023-02-12T02:10:12.320Z,6.93
2023-02-12T02:13:35.018Z,6.91
2023-02-12T02:16:43.628Z,6.93
2023-02-12T02:20:16.577Z,6.95
2023-02-12T02:23:29.906Z,6.97
2023-02-12T02:27:03.151Z,6.94
2023-02-12T02:30:40.492Z,6.89
2023-02-12T02:33:58.293Z,6.91
2023-02-12T02:37:19.599Z,6.85
2023-02-12T02:40:27.344Z,6.97
2023-02-12T02:43:38.381Z,6.94
2023-02-12T02:46:48.658Z,6.93
2023-02-12T02:50:04.679Z,6.94
2023-02-12T02:53:13.453Z,6.94
2023-02-12T02:56:20.150Z,6.95
2023-02-12T02:59:32.913Z,6.94
2023-02-12T03:02:40.403Z,6.91
2023-02-12T03:05:49.216Z,6.95
2023-02-12T03:08:58.481Z,6.97
2023-02-12T03:12:29.549Z,7.01
2023-02-12T03:15:46.228Z,6.96
2023-02-12T03:18:56.046Z,7.03
2023-02-12T03:22:23.344Z,7.06
2023-02-12T03:25:57.029Z,7.05
2023-02-12T03:29:01.277Z,7.00
2023-02-12T03:32:36.452Z,7.00
2023-02-12T03:36:05.388Z,6.99
2023-02-12T03:39:27.392Z,7.03
2023-02-12T03:42:50.115Z,7.02
2023-02-12T03:46:13.343Z,7.00
2023-02-12T03:49:23.801Z,6.99
2023-02-12T03:52:29.345Z,6.95
2023-02-12T03:55:39.952Z,6.98
2023-02-12T03:58:45.398Z,6.97
2023-02-12T04:01:52.902Z,7.03
2023-02-12T04:04:56.997Z,7.02
2023-02-12T04:08:04.318Z,7.01
2023-02-12T04:11:24.730Z,7.07
2023-02-12T04:14:53.564Z,7.08
2023-02-12T04:18:17.232Z,7.07
2023-02-12T04:21:46.414Z,7.06
2023-02-12T04:25:18.961Z,7.05
2023-02-12T04:28:41.878Z,7.06
2023-02-12T04:31:54.827Z,7.08
2023-02-12T04:35:05.067Z,7.06
2023-02-12T04:38:30.809Z,7.07
2023-02-12T04:41:35.115Z,7.10
2023-02-12T04:44:42.586Z,7.07
2023-02-12T04:47:47.439Z,7.13
2023-02-12T04:50:51.264Z,7.12
2023-02-12T04:53:55.220Z,7.08
2023-02-12T04:56:59.593Z,7.07
2023-02-12T05:00:08.868Z,7.12
2023-02-12T05:03:12.942Z,7.07
2023-02-12T05:06:17.191Z,7.12
2023-02-12T05:09:22.552Z,7.13
2023-02-12T05:12:26.797Z,7.09
2023-02-12T05:15:30.831Z,7.16
2023-02-12T05:18:35.733Z,7.13
2023-02-12T05:21:39.912Z,7.20
2023-02-12T05:24:44.227Z,7.12
2023-02-12T05:27:48.479Z,7.12
2023-02-12T05:30:52.711Z,7.13
2023-02-12T05:33:57.065Z,7.12
2023-02-12T05:37:01.672Z,7.08
2023-02-12T05:40:06.479Z,7.06
2023-02-12T05:43:11.112Z,7.08
2023-02-12T05:46:15.620Z,7.09
2023-02-12T05:49:19.532Z,7.04
2023-02-12T05:52:23.737Z,7.08
2023-02-12T05:55:27.908Z,7.07
2023-02-12T05:58:32.011Z,7.06
2023-02-12T06:01:38.578Z,7.10
2023-02-12T06:04:43.005Z,7.08
2023-02-12T06:07:47.474Z,7.09
2023-02-12T06:10:51.946Z,7.18
2023-02-12T06:13:56.096Z,7.14
2023-02-12T06:17:00.302Z,7.10
2023-02-12T06:20:04.706Z,7.10
2023-02-12T06:23:08.687Z,7.09
2023-02-12T06:26:12.945Z,7.10
2023-02-12T06:29:18.108Z,7.15
2023-02-12T06:32:22.640Z,7.09
2023-02-12T06:35:27.204Z,7.09
2023-02-12T06:38:31.373Z,7.09
2023-02-12T06:41:35.629Z,7.08
2023-02-12T06:44:39.595Z,7.12
2023-02-12T06:47:43.339Z,7.11
2023-02-12T06:50:47.648Z,7.14
2023-02-12T06:53:53.586Z,7.10
2023-02-12T06:56:57.494Z,7.15
2023-02-12T07:00:01.769Z,7.12
2023-02-12T07:03:05.813Z,7.17
2023-02-12T07:06:10.812Z,7.13
2023-02-12T07:09:14.918Z,7.13
2023-02-12T07:12:19.107Z,7.14
2023-02-12T07:15:23.319Z,7.16
2023-02-12T07:18:27.371Z,7.24
2023-02-12T07:21:32.238Z,7.27
2023-02-12T07:24:36.412Z,7.26
2023-02-12T07:27:40.833Z,7.28
2023-02-12T07:30:45.076Z,7.30
2023-02-12T07:33:54.717Z,7.30
2023-02-12T07:36:58.749Z,7.34
2023-02-12T07:40:03.023Z,7.33
2023-02-12T07:43:07.895Z,7.28
2023-02-12T07:46:34.724Z,7.28
2023-02-12T07:49:38.836Z,7.27
2023-02-12T07:52:43.223Z,7.24
2023-02-12T07:55:47.540Z,7.33
2023-02-12T07:58:53.018Z,7.31
2023-02-12T08:01:57.183Z,7.34
2023-02-12T08:05:01.252Z,7.37
2023-02-12T08:08:05.518Z,7.36
2023-02-12T08:11:11.542Z,7.35
2023-02-12T08:14:18.532Z,7.33
2023-02-12T08:17:22.676Z,7.40
2023-02-12T08:20:26.696Z,7.38
2023-02-12T08:23:32.042Z,7.48
2023-02-12T08:26:38.553Z,7.46
2023-02-12T08:29:42.758Z,7.56
2023-02-12T08:32:49.558Z,7.48
2023-02-12T08:36:05.317Z,7.56
2023-02-12T08:39:10.682Z,7.57
2023-02-12T08:42:14.905Z,7.57
2023-02-12T08:45:19.304Z,7.62
2023-02-12T08:48:23.839Z,7.68
2023-02-12T08:51:31.753Z,7.74
2023-02-12T08:54:35.989Z,7.82
2023-02-12T08:57:42.605Z,7.89
2023-02-12T09:00:46.519Z,7.94
2023-02-12T09:03:51.743Z,8.01
2023-02-12T09:06:56.472Z,8.14
2023-02-12T09:10:00.658Z,8.21
2023-02-12T09:13:04.434Z,8.29
2023-02-12T09:16:09.091Z,8.34
2023-02-12T09:19:14.619Z,8.46
2023-02-12T09:22:18.655Z,8.55
2023-02-12T09:25:23.033Z,8.62
2023-02-12T09:28:27.263Z,8.70
2023-02-12T09:31:32.671Z,8.76
2023-02-12T09:34:37.107Z,8.82
2023-02-12T09:37:41.726Z,8.85
2023-02-12T09:40:51.659Z,8.78
2023-02-12T09:44:21.607Z,8.74
2023-02-12T09:47:44.386Z,8.73
2023-02-12T09:50:57.885Z,8.69
2023-02-12T09:54:21.028Z,8.66
2023-02-12T09:57:36.118Z,8.64
2023-02-12T10:00:40.202Z,8.61
2023-02-12T10:03:47.370Z,8.55
2023-02-12T10:07:16.647Z,8.54
2023-02-12T10:10:39.221Z,8.50
2023-02-12T10:14:21.055Z,8.46
2023-02-12T10:17:33.324Z,8.49
2023-02-12T10:21:05.234Z,8.50
2023-02-12T10:24:44.243Z,8.56
2023-02-12T10:27:55.134Z,8.62
2023-02-12T10:31:03.457Z,8.72
2023-02-12T10:34:22.702Z,8.76
2023-02-12T10:37:37.480Z,8.87
2023-02-12T10:40:44.234Z,8.98
2023-02-12T10:43:48.447Z,9.15
2023-02-12T10:46:53.206Z,9.20
2023-02-12T10:50:02.879Z,9.16
2023-02-12T10:53:17.519Z,9.02
2023-02-12T10:56:24.636Z,8.96
2023-02-12T10:59:29.132Z,9.02
2023-02-12T11:02:34.330Z,9.09
2023-02-12T11:05:41.228Z,9.25
2023-02-12T11:08:46.109Z,9.42
2023-02-12T11:11:50.379Z,9.51
2023-02-12T11:14:57.903Z,9.50
2023-02-12T11:18:07.500Z,9.46
2023-02-12T11:21:12.923Z,9.50
2023-02-12T11:24:25.927Z,9.54
2023-02-12T11:27:31.158Z,9.44
2023-02-12T11:30:34.800Z,9.36
2023-02-12T11:33:39.313Z,9.36
2023-02-12T11:36:46.831Z,9.44
2023-02-12T11:39:51.439Z,9.53
2023-02-12T11:43:02.226Z,9.60
2023-02-12T11:46:08.695Z,9.52
2023-02-12T11:49:21.316Z,9.61
2023-02-12T11:52:32.605Z,9.71
2023-02-12T11:55:40.011Z,9.79
2023-02-12T11:58:44.927Z,9.89
2023-02-12T12:01:52.902Z,9.85
2023-02-12T12:05:11.998Z,9.92
2023-02-12T12:08:26.317Z,9.81
2023-02-12T12:11:40.320Z,9.81
2023-02-12T12:15:09.600Z,9.72
2023-02-12T12:18:51.295Z,9.59
2023-02-12T12:22:04.676Z,9.36
2023-02-12T12:25:25.186Z,9.27
2023-02-12T12:28:40.058Z,9.19
2023-02-12T12:31:47.080Z,9.20
2023-02-12T12:34:52.282Z,9.30
2023-02-12T12:38:07.593Z,9.25
2023-02-12T12:42:02.767Z,9.21
2023-02-12T12:45:20.850Z,9.12
2023-02-12T12:48:33.933Z,9.08
2023-02-12T12:51:47.071Z,9.14
2023-02-12T12:55:28.189Z,9.01
2023-02-12T12:59:03.469Z,8.98
2023-02-12T13:02:44.893Z,8.98
2023-02-12T13:06:16.002Z,8.91
2023-02-12T13:09:28.551Z,8.88
2023-02-12T13:12:54.279Z,8.80
2023-02-12T13:16:20.570Z,8.80
2023-02-12T13:19:36.863Z,8.80
2023-02-12T13:22:54.484Z,8.76
2023-02-12T13:26:11.296Z,8.76
2023-02-12T13:29:29.668Z,8.73
2023-02-12T13:32:40.643Z,8.73
2023-02-12T13:35:49.380Z,8.67
2023-02-12T13:38:59.932Z,8.72
2023-02-12T13:42:55.350Z,8.79
2023-02-12T13:46:02.054Z,8.98
2023-02-12T13:49:38.198Z,9.07
2023-02-12T13:53:06.888Z,9.13
2023-02-12T13:56:36.513Z,9.15
2023-02-12T13:59:43.363Z,9.11
2023-02-12T14:02:49.360Z,9.08
2023-02-12T14:06:13.154Z,9.01
2023-02-12T14:09:26.691Z,9.01
2023-02-12T14:12:42.994Z,9.01
2023-02-12T14:15:56.559Z,9.05
2023-02-12T14:19:38.436Z,9.02
2023-02-12T14:22:42.156Z,8.93
2023-02-12T14:25:55.390Z,8.93
2023-02-12T14:29:03.169Z,9.02
2023-02-12T14:32:45.786Z,9.13
2023-02-12T14:36:15.402Z,9.15
2023-02-12T14:39:19.490Z,9.18
2023-02-12T14:42:23.483Z,9.19
2023-02-12T14:45:35.954Z,9.24
2023-02-12T14:48:48.882Z,9.27
2023-02-12T14:52:06.578Z,9.30
2023-02-12T14:55:25.601Z,9.27
2023-02-12T14:58:32.522Z,9.23
2023-02-12T15:01:37.683Z,9.19
2023-02-12T15:04:45.285Z,9.17
2023-02-12T15:07:55.581Z,9.17
2023-02-12T15:11:04.415Z,9.14
2023-02-12T15:14:14.874Z,9.17
2023-02-12T15:17:27.710Z,9.19
2023-02-12T15:20:38.515Z,9.21
2023-02-12T15:23:44.384Z,9.19
2023-02-12T15:26:51.670Z,9.10
2023-02-12T15:29:55.615Z,9.10
2023-02-12T15:33:04.036Z,9.07
2023-02-12T15:36:10.659Z,8.96
2023-02-12T15:39:18.931Z,8.94
2023-02-12T15:42:42.516Z,9.02
2023-02-12T15:45:51.892Z,8.97
2023-02-12T15:48:56.133Z,8.94
2023-02-12T15:52:04.059Z,8.91
2023-02-12T15:55:16.356Z,8.87
2023-02-12T15:58:36.273Z,8.85
2023-02-12T16:01:40.741Z,8.84
2023-02-12T16:04:44.987Z,8.82
2023-02-12T16:07:49.579Z,8.84
2023-02-12T16:10:55.636Z,8.79
2023-02-12T16:14:08.467Z,8.78
2023-02-12T16:17:25.007Z,8.76
2023-02-12T16:20:29.446Z,8.77
2023-02-12T16:23:35.306Z,8.78
2023-02-12T16:26:39.504Z,8.76
2023-02-12T16:29:52.142Z,8.75
2023-02-12T16:32:56.545Z,8.76
2023-02-12T16:36:22.554Z,8.70
2023-02-12T16:39:54.057Z,8.65
2023-02-12T16:43:23.368Z,8.68
2023-02-12T16:46:46.416Z,8.66
2023-02-12T16:49:59.021Z,8.57
2023-02-12T16:53:22.404Z,8.63
2023-02-12T16:56:40.163Z,8.59
2023-02-12T16:59:45.190Z,8.61
2023-02-12T17:02:49.616Z,8.59
2023-02-12T17:05:53.658Z,8.60
2023-02-12T17:08:59.310Z,8.54
2023-02-12T17:12:03.514Z,8.55
2023-02-12T17:15:07.923Z,8.55
2023-02-12T17:18:12.340Z,8.52
2023-02-12T17:21:32.532Z,8.49
2023-02-12T17:24:36.725Z,8.53
2023-02-12T17:27:41.202Z,8.47
2023-02-12T17:30:45.545Z,8.48
2023-02-12T17:33:50.210Z,8.45
2023-02-12T17:36:54.282Z,8.49
2023-02-12T17:39:59.011Z,8.53
2023-02-12T17:43:04.754Z,8.48
2023-02-12T17:46:14.298Z,8.47
2023-02-12T17:49:18.821Z,8.51
2023-02-12T17:52:23.218Z,8.51
2023-02-12T17:55:27.335Z,8.48
2023-02-12T17:58:31.547Z,8.48
2023-02-12T18:01:36.086Z,8.48
2023-02-12T18:04:40.253Z,8.50
2023-02-12T18:07:44.563Z,8.45
2023-02-12T18:10:48.717Z,8.46
2023-02-12T18:13:56.679Z,8.48
2023-02-12T18:17:01.000Z,8.48
2023-02-12T18:20:06.037Z,8.51
2023-02-12T18:23:11.383Z,8.52
2023-02-12T18:26:17.307Z,8.58
2023-02-12T18:29:21.653Z,8.46
2023-02-12T18:32:25.711Z,8.50
2023-02-12T18:35:29.563Z,8.52
2023-02-12T18:38:35.643Z,8.44
2023-02-12T18:41:40.188Z,8.38
2023-02-12T18:44:44.192Z,8.41
2023-02-12T18:47:48.148Z,8.45
2023-02-12T18:50:55.162Z,8.49
2023-02-12T18:54:06.339Z,8.49
2023-02-12T18:57:10.996Z,8.49
2023-02-12T19:00:15.695Z,8.47
2023-02-12T19:03:19.523Z,8.49
2023-02-12T19:06:23.880Z,8.45
2023-02-12T19:09:28.491Z,8.45
2023-02-12T19:12:32.639Z,8.41
2023-02-12T19:15:40.666Z,8.42
2023-02-12T19:18:47.737Z,8.40
2023-02-12T19:21:51.736Z,8.43
2023-02-12T19:24:56.028Z,8.43
2023-02-12T19:28:00.405Z,8.45
2023-02-12T19:31:19.907Z,8.48
2023-02-12T19:34:24.779Z,8.45
2023-02-12T19:37:28.712Z,8.44
2023-02-12T19:40:32.977Z,8.45
2023-02-12T19:43:37.763Z,8.44
2023-02-12T19:46:42.860Z,8.41
2023-02-12T19:49:46.651Z,8.44
2023-02-12T19:52:50.949Z,8.40
2023-02-12T19:55:55.436Z,8.33
2023-02-12T19:58:59.412Z,8.29
2023-02-12T20:02:03.694Z,8.35
2023-02-12T20:05:08.174Z,8.32
2023-02-12T20:08:13.625Z,8.30
2023-02-12T20:11:20.416Z,8.33
2023-02-12T20:14:24.620Z,8.34
2023-02-12T20:17:28.859Z,8.40
2023-02-12T20:20:34.067Z,8.37
2023-02-12T20:23:38.036Z,8.36
2023-02-12T20:26:42.403Z,8.37
2023-02-12T20:29:46.892Z,8.37
2023-02-12T20:32:51.418Z,8.34
2023-02-12T20:35:56.874Z,8.36
2023-02-12T20:39:01.438Z,8.41
2023-02-12T20:42:05.638Z,8.38
2023-02-12T20:45:10.011Z,8.31
2023-02-12T20:48:14.369Z,8.34
2023-02-12T20:51:21.699Z,8.39
2023-02-12T20:54:26.052Z,8.35
2023-02-12T20:57:31.459Z,8.32
2023-02-12T21:00:35.279Z,8.34
2023-02-12T21:03:40.148Z,8.39
2023-02-12T21:06:45.562Z,8.33
2023-02-12T21:09:50.161Z,8.36
2023-02-12T21:12:54.346Z,8.36
2023-02-12T21:16:20.258Z,8.34
2023-02-12T21:19:25.767Z,8.28
2023-02-12T21:22:29.539Z,8.30
2023-02-12T21:25:33.436Z,8.35
2023-02-12T21:28:37.832Z,8.32
2023-02-12T21:31:45.636Z,8.34
2023-02-12T21:34:49.995Z,8.31
2023-02-12T21:37:53.811Z,8.32
2023-02-12T21:41:06.442Z,8.29
2023-02-12T21:44:15.752Z,8.29
2023-02-12T21:47:19.924Z,8.29
2023-02-12T21:50:24.080Z,8.33
2023-02-12T21:53:29.028Z,8.31
2023-02-12T21:56:33.345Z,8.29
2023-02-12T21:59:37.403Z,8.28
2023-02-12T22:02:41.591Z,8.26
2023-02-12T22:05:46.515Z,8.23
2023-02-12T22:08:54.174Z,8.21
2023-02-12T22:11:58.269Z,8.27
2023-02-12T22:15:02.520Z,8.22
2023-02-12T22:18:06.712Z,8.24
2023-02-12T22:21:13.578Z,8.21
2023-02-12T22:24:18.337Z,8.19
2023-02-12T22:27:22.556Z,8.20
2023-02-12T22:30:26.728Z,8.26
2023-02-12T22:33:30.980Z,8.21
2023-02-12T22:36:37.421Z,8.16
2023-02-12T22:39:41.436Z,8.11
2023-02-12T22:42:45.557Z,8.12
2023-02-12T22:45:49.589Z,8.14
2023-02-12T22:48:53.954Z,8.16
2023-02-12T22:51:58.206Z,8.14
2023-02-12T22:55:02.666Z,8.14
2023-02-12T22:58:07.247Z,8.08
2023-02-12T23:01:14.303Z,8.05
2023-02-12T23:04:18.728Z,8.07
2023-02-12T23:07:22.880Z,7.99
2023-02-12T23:10:27.196Z,8.00
2023-02-12T23:13:32.010Z,7.99
2023-02-12T23:16:35.903Z,8.08
2023-02-12T23:19:39.949Z,8.02
2023-02-12T23:22:43.786Z,8.03
2023-02-12T23:25:48.220Z,8.00
2023-02-12T23:28:52.440Z,7.96
2023-02-12T23:31:56.543Z,7.98
2023-02-12T23:35:00.440Z,7.96
2023-02-12T23:38:04.895Z,7.95
2023-02-12T23:41:08.818Z,7.93
2023-02-12T23:44:13.653Z,7.91
2023-02-12T23:47:17.903Z,7.93
2023-02-12T23:50:22.362Z,7.97
2023-02-12T23:53:26.430Z,7.95
2023-02-12T23:56:30.712Z,7.94
2023-02-12T23:59:34.881Z,7.93
